Time,TemperatureF,DewpointF,PressureIn,WindDirection,WindDirectionDegrees,WindSpeedMPH,WindSpeedGustMPH,Humidity,HourlyPrecipIn,Conditions,Clouds,dailyrainin,SolarRadiationWatts/m^2,SoftwareType,DateUTC
2013-04-23 00:01:00,23.0,13.0,-100.00,NNW,336,2.0,5.0,62,-99.99,,,0.00,0.120000,,2013-04-23 06:01:00,
2013-04-23 00:12:00,23.0,13.0,-100.00,NNW,336,2.0,5.0,62,-99.99,,,0.00,0.120000,,2013-04-23 06:12:00,
2013-04-23 00:41:00,23.0,12.0,-100.00,WSW,256,2.0,5.0,63,-99.99,,,0.00,0.120000,,2013-04-23 06:41:00,
2013-04-23 00:52:00,23.0,12.0,-100.00,WSW,256,2.0,5.0,63,-99.99,,,0.00,0.120000,,2013-04-23 06:52:00,
2013-04-23 01:02:00,23.0,12.0,-100.00,WSW,256,2.0,5.0,63,-99.99,,,0.00,0.120000,,2013-04-23 07:02:00,
2013-04-23 01:11:00,23.0,12.0,-100.00,WSW,256,2.0,5.0,63,-99.99,,,0.00,0.120000,,2013-04-23 07:11:00,
2013-04-23 01:42:00,17.0,12.0,-100.00,SSE,166,1.0,3.0,78,-99.99,,,0.00,0.120000,,2013-04-23 07:42:00,
2013-04-23 01:52:00,17.0,12.0,-100.00,SSE,166,1.0,3.0,78,-99.99,,,0.00,0.120000,,2013-04-23 07:52:00,
2013-04-23 02:01:00,17.0,12.0,-100.00,SSE,166,1.0,3.0,78,-99.99,,,0.00,0.120000,,2013-04-23 08:01:00,
2013-04-23 02:11:00,17.0,12.0,-100.00,SSE,166,1.0,3.0,78,-99.99,,,0.00,0.120000,,2013-04-23 08:11:00,
2013-04-23 02:42:00,13.0,8.0,-100.00,SSW,203,4.0,4.0,79,-99.99,,,0.00,0.120000,,2013-04-23 08:42:00,
2013-04-23 02:52:00,13.0,8.0,-100.00,SSW,203,4.0,4.0,79,-99.99,,,0.00,0.120000,,2013-04-23 08:52:00,
2013-04-23 03:01:00,13.0,8.0,-100.00,SSW,203,4.0,4.0,79,-99.99,,,0.00,0.120000,,2013-04-23 09:01:00,
2013-04-23 03:11:00,13.0,8.0,-100.00,SSW,203,4.0,4.0,79,-99.99,,,0.00,0.120000,,2013-04-23 09:11:00,
2013-04-23 03:42:00,14.0,9.0,-100.00,SSW,206,2.0,4.0,80,-99.99,,,0.00,0.120000,,2013-04-23 09:42:00,
2013-04-23 03:53:00,14.0,9.0,-100.00,SSW,206,2.0,4.0,80,-99.99,,,0.00,0.120000,,2013-04-23 09:53:00,
2013-04-23 04:02:00,14.0,9.0,-100.00,SSW,206,2.0,4.0,80,-99.99,,,0.00,0.120000,,2013-04-23 10:02:00,
2013-04-23 04:12:00,14.0,9.0,-100.00,SSW,206,2.0,4.0,80,-99.99,,,0.00,0.120000,,2013-04-23 10:12:00,
2013-04-23 04:42:00,13.0,9.0,-100.00,WNW,287,0.0,1.0,81,-99.99,,,0.00,0.120000,,2013-04-23 10:42:00,
2013-04-23 04:52:00,13.0,9.0,-100.00,WNW,287,0.0,1.0,81,-99.99,,,0.00,0.120000,,2013-04-23 10:52:00,
2013-04-23 05:02:00,13.0,9.0,-100.00,WNW,287,0.0,1.0,81,-99.99,,,0.00,0.120000,,2013-04-23 11:02:00,
2013-04-23 05:12:00,13.0,9.0,-100.00,WNW,287,0.0,1.0,81,-99.99,,,0.00,0.120000,,2013-04-23 11:12:00,
2013-04-23 05:42:00,14.0,9.0,-100.00,NW,324,1.0,2.0,83,-99.99,,,0.00,0.120000,,2013-04-23 11:42:00,
2013-04-23 05:53:00,14.0,9.0,-100.00,NW,324,1.0,2.0,83,-99.99,,,0.00,0.120000,,2013-04-23 11:53:00,
2013-04-23 06:02:00,14.0,9.0,-100.00,NW,324,1.0,2.0,83,-99.99,,,0.00,0.120000,,2013-04-23 12:02:00,
2013-04-23 06:12:00,14.0,9.0,-100.00,NW,324,1.0,2.0,83,-99.99,,,0.00,0.120000,,2013-04-23 12:12:00,
2013-04-23 07:41:00,14.0,10.0,-100.00,SSW,206,4.0,4.0,83,-99.99,,,0.00,58.689999,,2013-04-23 13:41:00,
2013-04-23 07:52:00,14.0,10.0,-100.00,SSW,206,4.0,4.0,83,-99.99,,,0.00,58.689999,,2013-04-23 13:52:00,
2013-04-23 08:01:00,14.0,10.0,-100.00,SSW,206,4.0,4.0,83,-99.99,,,0.00,58.689999,,2013-04-23 14:01:00,
2013-04-23 08:11:00,14.0,10.0,-100.00,SSW,206,4.0,4.0,83,-99.99,,,0.00,58.689999,,2013-04-23 14:11:00,
2013-04-23 08:42:00,22.0,14.0,-100.00,SSE,162,1.0,4.0,71,-99.99,,,0.00,213.380005,,2013-04-23 14:42:00,
2013-04-23 08:52:00,22.0,14.0,-100.00,SSE,162,1.0,4.0,71,-99.99,,,0.00,213.380005,,2013-04-23 14:52:00,
2013-04-23 09:01:00,22.0,14.0,-100.00,SSE,162,1.0,4.0,71,-99.99,,,0.00,213.380005,,2013-04-23 15:01:00,
2013-04-23 09:11:00,22.0,14.0,-100.00,SSE,162,1.0,4.0,71,-99.99,,,0.00,213.380005,,2013-04-23 15:11:00,
2013-04-23 09:42:00,27.0,17.0,-100.00,East,101,1.0,4.0,65,-99.99,,,0.00,440.940002,,2013-04-23 15:42:00,
2013-04-23 09:53:00,27.0,17.0,-100.00,East,101,1.0,4.0,65,-99.99,,,0.00,440.940002,,2013-04-23 15:53:00,
2013-04-23 10:02:00,27.0,17.0,-100.00,East,101,1.0,4.0,65,-99.99,,,0.00,440.940002,,2013-04-23 16:02:00,
2013-04-23 10:12:00,27.0,17.0,-100.00,East,101,1.0,4.0,65,-99.99,,,0.00,440.940002,,2013-04-23 16:12:00,
2013-04-23 10:42:00,31.0,14.0,-100.00,ENE,69,2.0,5.0,49,-99.99,,,0.00,623.289978,,2013-04-23 16:42:00,
2013-04-23 10:53:00,31.0,14.0,-100.00,ENE,69,2.0,5.0,49,-99.99,,,0.00,623.289978,,2013-04-23 16:53:00,
2013-04-23 11:02:00,31.0,14.0,-100.00,ENE,69,2.0,5.0,49,-99.99,,,0.00,623.289978,,2013-04-23 17:02:00,
2013-04-23 11:11:00,31.0,14.0,-100.00,ENE,69,2.0,5.0,49,-99.99,,,0.00,623.289978,,2013-04-23 17:11:00,
2013-04-23 11:42:00,36.0,14.0,-100.00,North,354,5.0,10.0,40,-99.99,,,0.00,698.710022,,2013-04-23 17:42:00,
2013-04-23 11:53:00,36.0,14.0,-100.00,North,354,5.0,10.0,40,-99.99,,,0.00,698.710022,,2013-04-23 17:53:00,
2013-04-23 12:02:00,36.0,14.0,-100.00,North,354,5.0,10.0,40,-99.99,,,0.00,698.710022,,2013-04-23 18:02:00,
2013-04-23 12:12:00,36.0,14.0,-100.00,North,354,5.0,10.0,40,-99.99,,,0.00,698.710022,,2013-04-23 18:12:00,
2013-04-23 12:42:00,38.0,17.0,-100.00,North,3,9.0,16.0,40,-99.99,,,0.00,692.210022,,2013-04-23 18:42:00,
2013-04-23 12:52:00,38.0,17.0,-100.00,North,3,9.0,16.0,40,-99.99,,,0.00,692.210022,,2013-04-23 18:52:00,
2013-04-23 13:02:00,38.0,17.0,-100.00,North,3,9.0,16.0,40,-99.99,,,0.00,692.210022,,2013-04-23 19:02:00,
2013-04-23 13:11:00,38.0,17.0,-100.00,North,3,9.0,16.0,40,-99.99,,,0.00,692.210022,,2013-04-23 19:11:00,
2013-04-23 13:42:00,41.0,17.0,-100.00,NNE,32,7.0,20.0,36,-99.99,,,0.00,661.640015,,2013-04-23 19:42:00,
2013-04-23 13:52:00,41.0,17.0,-100.00,NNE,32,7.0,20.0,36,-99.99,,,0.00,661.640015,,2013-04-23 19:52:00,
2013-04-23 14:01:00,41.0,17.0,-100.00,NNE,32,7.0,20.0,36,-99.99,,,0.00,661.640015,,2013-04-23 20:01:00,
2013-04-23 14:11:00,41.0,17.0,-100.00,NNE,32,7.0,20.0,36,-99.99,,,0.00,661.640015,,2013-04-23 20:11:00,
2013-04-23 14:42:00,42.0,15.0,-100.00,North,2,17.0,24.0,32,-99.99,,,0.00,436.059998,,2013-04-23 20:42:00,
2013-04-23 14:52:00,42.0,15.0,-100.00,North,2,17.0,24.0,32,-99.99,,,0.00,436.059998,,2013-04-23 20:52:00,
2013-04-23 15:01:00,42.0,15.0,-100.00,North,2,17.0,24.0,32,-99.99,,,0.00,436.059998,,2013-04-23 21:01:00,
2013-04-23 15:11:00,42.0,15.0,-100.00,North,2,17.0,24.0,32,-99.99,,,0.00,436.059998,,2013-04-23 21:11:00,
2013-04-23 15:43:00,42.0,15.0,-100.00,NNW,347,19.0,26.0,33,-99.99,,,0.00,391.890015,,2013-04-23 21:43:00,
2013-04-23 15:52:00,42.0,15.0,-100.00,NNW,347,19.0,26.0,33,-99.99,,,0.00,391.890015,,2013-04-23 21:52:00,
2013-04-23 16:03:00,42.0,15.0,-100.00,NNW,347,19.0,26.0,33,-99.99,,,0.00,391.890015,,2013-04-23 22:03:00,
2013-04-23 16:12:00,42.0,15.0,-100.00,NNW,347,19.0,26.0,33,-99.99,,,0.00,391.890015,,2013-04-23 22:12:00,
2013-04-23 16:42:00,42.0,13.0,-100.00,NNW,333,10.0,17.0,29,-99.99,,,0.00,341.690002,,2013-04-23 22:42:00,
2013-04-23 16:52:00,42.0,13.0,-100.00,NNW,333,10.0,17.0,29,-99.99,,,0.00,341.690002,,2013-04-23 22:52:00,
2013-04-23 17:02:00,42.0,13.0,-100.00,NNW,333,10.0,17.0,29,-99.99,,,0.00,341.690002,,2013-04-23 23:02:00,
2013-04-23 17:12:00,42.0,13.0,-100.00,NNW,333,10.0,17.0,29,-99.99,,,0.00,341.690002,,2013-04-23 23:12:00,
2013-04-23 17:42:00,43.0,11.0,-100.00,NNW,342,13.0,21.0,26,-99.99,,,0.00,433.619995,,2013-04-23 23:42:00,
2013-04-23 17:52:00,43.0,11.0,-100.00,NNW,342,13.0,21.0,26,-99.99,,,0.00,433.619995,,2013-04-23 23:52:00,
2013-04-23 18:01:00,43.0,11.0,-100.00,NNW,342,13.0,21.0,26,-99.99,,,0.00,433.619995,,2013-04-24 00:01:00,
2013-04-23 18:11:00,43.0,11.0,-100.00,NNW,342,13.0,21.0,26,-99.99,,,0.00,433.619995,,2013-04-24 00:11:00,
2013-04-23 19:42:00,43.0,13.0,-100.00,NNW,347,11.0,17.0,29,-99.99,,,0.00,230.580002,,2013-04-24 01:42:00,
2013-04-23 19:52:00,43.0,13.0,-100.00,NNW,347,11.0,17.0,29,-99.99,,,0.00,230.580002,,2013-04-24 01:52:00,
2013-04-23 20:02:00,43.0,13.0,-100.00,NNW,347,11.0,17.0,29,-99.99,,,0.00,230.580002,,2013-04-24 02:02:00,
2013-04-23 20:12:00,43.0,13.0,-100.00,NNW,347,11.0,17.0,29,-99.99,,,0.00,230.580002,,2013-04-24 02:12:00,
2013-04-23 20:46:00,39.0,15.0,-100.00,North,349,9.0,14.0,38,-99.99,,,0.00,17.080000,,2013-04-24 02:46:00,
2013-04-23 21:13:00,39.0,15.0,-100.00,North,349,9.0,14.0,38,-99.99,,,0.00,17.080000,,2013-04-24 03:13:00,
2013-04-23 22:12:00,37.0,16.0,-100.00,North,349,8.0,13.0,43,-99.99,,,0.00,0.120000,,2013-04-24 04:12:00,
2013-04-23 22:43:00,36.0,18.0,-100.00,NNW,332,6.0,12.0,47,-99.99,,,0.00,0.120000,,2013-04-24 04:43:00,
2013-04-23 22:53:00,36.0,18.0,-100.00,NNW,332,6.0,12.0,47,-99.99,,,0.00,0.120000,,2013-04-24 04:53:00,
2013-04-23 23:02:00,36.0,18.0,-100.00,NNW,332,6.0,12.0,47,-99.99,,,0.00,0.120000,,2013-04-24 05:02:00,
2013-04-23 23:12:00,36.0,18.0,-100.00,NNW,332,6.0,12.0,47,-99.99,,,0.00,0.120000,,2013-04-24 05:12:00,
2013-04-23 23:42:00,31.0,17.0,-100.00,NNW,333,2.0,4.0,57,-99.99,,,0.00,0.120000,,2013-04-24 05:42:00,
2013-04-23 23:52:00,31.0,17.0,-100.00,NNW,333,2.0,4.0,57,-99.99,,,0.00,0.120000,,2013-04-24 05:52:00,